sensor_id;sensor_type;location;lat;lon;timestamp;P1;durP1;ratioP1;P2;durP2;ratioP2
13568;SDS011;6856;51.460;7.158;2023-11-21T00:01:29;7.47;;;4.13;;
13568;SDS011;6856;51.460;7.158;2023-11-21T00:04:04;4.23;;;3.80;;
13568;SDS011;6856;51.460;7.158;2023-11-21T00:06:38;5.13;;;3.93;;
13568;SDS011;6856;51.460;7.158;2023-11-21T00:09:12;4.77;;;3.63;;
13568;SDS011;6856;51.460;7.158;2023-11-21T00:11:47;4.83;;;3.63;;
13568;SDS011;6856;51.460;7.158;2023-11-21T00:14:20;6.33;;;4.20;;
13568;SDS011;6856;51.460;7.158;2023-11-21T00:16:56;5.10;;;4.00;;
13568;SDS011;6856;51.460;7.158;2023-11-21T00:19:32;5.17;;;3.93;;
13568;SDS011;6856;51.460;7.158;2023-11-21T00:22:06;4.87;;;3.73;;
13568;SDS011;6856;51.460;7.158;2023-11-21T00:24:40;5.30;;;4.07;;
13568;SDS011;6856;51.460;7.158;2023-11-21T00:27:14;4.80;;;4.03;;
13568;SDS011;6856;51.460;7.158;2023-11-21T00:29:48;5.13;;;3.73;;
13568;SDS011;6856;51.460;7.158;2023-11-21T00:32:23;5.50;;;4.00;;
13568;SDS011;6856;51.460;7.158;2023-11-21T00:34:59;5.60;;;4.47;;
13568;SDS011;6856;51.460;7.158;2023-11-21T00:37:33;5.80;;;4.40;;
13568;SDS011;6856;51.460;7.158;2023-11-21T00:40:07;4.57;;;3.80;;
13568;SDS011;6856;51.460;7.158;2023-11-21T00:42:42;5.60;;;3.53;;
13568;SDS011;6856;51.460;7.158;2023-11-21T00:45:15;6.10;;;4.30;;
13568;SDS011;6856;51.460;7.158;2023-11-21T00:47:51;6.30;;;4.50;;
13568;SDS011;6856;51.460;7.158;2023-11-21T00:50:24;5.90;;;3.83;;
13568;SDS011;6856;51.460;7.158;2023-11-21T00:52:58;4.97;;;4.03;;
13568;SDS011;6856;51.460;7.158;2023-11-21T00:55:33;6.57;;;4.27;;
13568;SDS011;6856;51.460;7.158;2023-11-21T00:58:07;5.17;;;3.70;;
13568;SDS011;6856;51.460;7.158;2023-11-21T01:00:42;5.93;;;3.97;;
13568;SDS011;6856;51.460;7.158;2023-11-21T01:03:18;4.90;;;4.00;;
13568;SDS011;6856;51.460;7.158;2023-11-21T01:05:52;6.17;;;4.03;;
13568;SDS011;6856;51.460;7.158;2023-11-21T01:08:26;5.33;;;4.00;;
13568;SDS011;6856;51.460;7.158;2023-11-21T01:11:00;4.90;;;3.83;;
13568;SDS011;6856;51.460;7.158;2023-11-21T01:13:34;5.43;;;4.27;;
13568;SDS011;6856;51.460;7.158;2023-11-21T01:16:10;6.90;;;4.73;;
13568;SDS011;6856;51.460;7.158;2023-11-21T01:18:46;5.53;;;4.20;;
13568;SDS011;6856;51.460;7.158;2023-11-21T01:21:20;5.63;;;4.30;;
13568;SDS011;6856;51.460;7.158;2023-11-21T01:23:54;5.43;;;3.93;;
13568;SDS011;6856;51.460;7.158;2023-11-21T01:26:28;6.70;;;5.00;;
13568;SDS011;6856;51.460;7.158;2023-11-21T01:29:01;5.27;;;4.23;;
13568;SDS011;6856;51.460;7.158;2023-11-21T01:31:36;6.83;;;4.47;;
13568;SDS011;6856;51.460;7.158;2023-11-21T01:34:11;5.63;;;4.70;;
13568;SDS011;6856;51.460;7.158;2023-11-21T01:36:48;5.50;;;4.00;;
13568;SDS011;6856;51.460;7.158;2023-11-21T01:39:22;5.43;;;3.80;;
13568;SDS011;6856;51.460;7.158;2023-11-21T01:41:56;5.63;;;4.30;;
13568;SDS011;6856;51.460;7.158;2023-11-21T01:44:32;5.23;;;4.53;;
13568;SDS011;6856;51.460;7.158;2023-11-21T01:47:06;5.20;;;4.43;;
13568;SDS011;6856;51.460;7.158;2023-11-21T01:49:44;5.53;;;4.43;;
13568;SDS011;6856;51.460;7.158;2023-11-21T01:52:20;4.93;;;4.10;;
13568;SDS011;6856;51.460;7.158;2023-11-21T01:54:54;7.13;;;4.20;;
13568;SDS011;6856;51.460;7.158;2023-11-21T01:57:28;4.77;;;3.77;;
13568;SDS011;6856;51.460;7.158;2023-11-21T02:00:02;5.80;;;4.10;;
13568;SDS011;6856;51.460;7.158;2023-11-21T02:02:47;5.53;;;4.17;;
13568;SDS011;6856;51.460;7.158;2023-11-21T02:05:23;6.23;;;4.57;;
13568;SDS011;6856;51.460;7.158;2023-11-21T02:07:57;6.23;;;4.53;;
13568;SDS011;6856;51.460;7.158;2023-11-21T02:10:32;5.73;;;4.57;;
13568;SDS011;6856;51.460;7.158;2023-11-21T02:13:08;7.50;;;4.93;;
13568;SDS011;6856;51.460;7.158;2023-11-21T02:15:42;6.83;;;4.63;;
13568;SDS011;6856;51.460;7.158;2023-11-21T02:18:17;8.10;;;4.30;;
13568;SDS011;6856;51.460;7.158;2023-11-21T02:20:52;10.67;;;5.00;;
13568;SDS011;6856;51.460;7.158;2023-11-21T02:23:27;5.97;;;4.43;;
13568;SDS011;6856;51.460;7.158;2023-11-21T02:26:01;6.07;;;4.40;;
13568;SDS011;6856;51.460;7.158;2023-11-21T02:28:36;5.60;;;4.67;;
13568;SDS011;6856;51.460;7.158;2023-11-21T02:31:10;7.23;;;5.13;;
13568;SDS011;6856;51.460;7.158;2023-11-21T02:33:44;6.83;;;4.43;;
13568;SDS011;6856;51.460;7.158;2023-11-21T02:36:18;8.63;;;4.80;;
13568;SDS011;6856;51.460;7.158;2023-11-21T02:38:54;6.17;;;4.63;;
13568;SDS011;6856;51.460;7.158;2023-11-21T02:41:28;7.83;;;5.33;;
13568;SDS011;6856;51.460;7.158;2023-11-21T02:44:02;7.43;;;5.13;;
13568;SDS011;6856;51.460;7.158;2023-11-21T02:46:38;8.07;;;4.87;;
13568;SDS011;6856;51.460;7.158;2023-11-21T02:49:12;6.67;;;4.90;;
13568;SDS011;6856;51.460;7.158;2023-11-21T02:51:46;6.40;;;4.30;;
13568;SDS011;6856;51.460;7.158;2023-11-21T02:54:21;5.93;;;4.63;;
13568;SDS011;6856;51.460;7.158;2023-11-21T02:56:55;7.60;;;4.17;;
13568;SDS011;6856;51.460;7.158;2023-11-21T02:59:30;6.23;;;4.57;;
13568;SDS011;6856;51.460;7.158;2023-11-21T03:02:04;8.20;;;5.23;;
13568;SDS011;6856;51.460;7.158;2023-11-21T03:04:40;6.40;;;4.53;;
13568;SDS011;6856;51.460;7.158;2023-11-21T03:07:14;7.10;;;4.90;;
13568;SDS011;6856;51.460;7.158;2023-11-21T03:09:49;5.80;;;4.83;;
13568;SDS011;6856;51.460;7.158;2023-11-21T03:12:23;6.13;;;4.80;;
13568;SDS011;6856;51.460;7.158;2023-11-21T03:14:58;7.50;;;4.63;;
13568;SDS011;6856;51.460;7.158;2023-11-21T03:17:34;6.60;;;4.87;;
13568;SDS011;6856;51.460;7.158;2023-11-21T03:20:08;5.97;;;4.17;;
13568;SDS011;6856;51.460;7.158;2023-11-21T03:22:43;6.20;;;4.40;;
13568;SDS011;6856;51.460;7.158;2023-11-21T03:25:18;6.53;;;3.97;;
13568;SDS011;6856;51.460;7.158;2023-11-21T03:27:52;6.10;;;4.13;;
13568;SDS011;6856;51.460;7.158;2023-11-21T03:30:26;5.93;;;4.43;;
13568;SDS011;6856;51.460;7.158;2023-11-21T03:33:00;5.90;;;4.73;;
13568;SDS011;6856;51.460;7.158;2023-11-21T03:35:33;7.07;;;4.73;;
13568;SDS011;6856;51.460;7.158;2023-11-21T03:38:08;5.83;;;4.17;;
13568;SDS011;6856;51.460;7.158;2023-11-21T03:40:45;7.50;;;4.97;;
13568;SDS011;6856;51.460;7.158;2023-11-21T03:43:21;6.03;;;4.43;;
13568;SDS011;6856;51.460;7.158;2023-11-21T03:45:56;5.13;;;4.23;;
13568;SDS011;6856;51.460;7.158;2023-11-21T03:48:30;7.93;;;4.80;;
13568;SDS011;6856;51.460;7.158;2023-11-21T03:51:05;5.87;;;4.40;;
13568;SDS011;6856;51.460;7.158;2023-11-21T03:53:39;5.90;;;4.37;;
13568;SDS011;6856;51.460;7.158;2023-11-21T03:56:15;7.67;;;4.80;;
13568;SDS011;6856;51.460;7.158;2023-11-21T03:58:50;6.97;;;4.83;;
13568;SDS011;6856;51.460;7.158;2023-11-21T04:01:24;7.13;;;4.57;;
13568;SDS011;6856;51.460;7.158;2023-11-21T04:03:58;6.07;;;3.93;;
13568;SDS011;6856;51.460;7.158;2023-11-21T04:06:33;8.10;;;4.47;;
13568;SDS011;6856;51.460;7.158;2023-11-21T04:09:07;6.07;;;4.80;;
13568;SDS011;6856;51.460;7.158;2023-11-21T04:11:42;6.00;;;4.80;;
13568;SDS011;6856;51.460;7.158;2023-11-21T04:14:17;7.30;;;5.00;;
13568;SDS011;6856;51.460;7.158;2023-11-21T04:16:51;6.17;;;4.77;;
13568;SDS011;6856;51.460;7.158;2023-11-21T04:19:25;6.53;;;4.67;;
13568;SDS011;6856;51.460;7.158;2023-11-21T04:21:59;6.67;;;5.13;;
13568;SDS011;6856;51.460;7.158;2023-11-21T04:24:33;5.83;;;4.40;;
13568;SDS011;6856;51.460;7.158;2023-11-21T04:27:08;5.70;;;4.30;;
13568;SDS011;6856;51.460;7.158;2023-11-21T04:29:42;5.90;;;4.30;;
13568;SDS011;6856;51.460;7.158;2023-11-21T04:32:16;6.40;;;4.40;;
13568;SDS011;6856;51.460;7.158;2023-11-21T04:34:49;6.20;;;4.30;;
13568;SDS011;6856;51.460;7.158;2023-11-21T04:37:23;4.43;;;3.90;;
13568;SDS011;6856;51.460;7.158;2023-11-21T04:39:57;5.57;;;3.80;;
13568;SDS011;6856;51.460;7.158;2023-11-21T04:42:32;7.17;;;4.87;;
13568;SDS011;6856;51.460;7.158;2023-11-21T04:45:08;7.47;;;4.73;;
13568;SDS011;6856;51.460;7.158;2023-11-21T04:47:44;5.70;;;4.40;;
13568;SDS011;6856;51.460;7.158;2023-11-21T04:50:17;5.83;;;4.87;;
13568;SDS011;6856;51.460;7.158;2023-11-21T04:52:52;7.77;;;4.37;;
13568;SDS011;6856;51.460;7.158;2023-11-21T04:55:25;6.10;;;4.20;;
13568;SDS011;6856;51.460;7.158;2023-11-21T04:58:03;5.70;;;4.13;;
13568;SDS011;6856;51.460;7.158;2023-11-21T05:00:38;5.73;;;4.40;;
13568;SDS011;6856;51.460;7.158;2023-11-21T05:03:12;6.33;;;4.60;;
13568;SDS011;6856;51.460;7.158;2023-11-21T05:05:46;4.97;;;3.87;;
13568;SDS011;6856;51.460;7.158;2023-11-21T05:08:19;7.83;;;4.83;;
13568;SDS011;6856;51.460;7.158;2023-11-21T05:10:54;6.33;;;3.97;;
13568;SDS011;6856;51.460;7.158;2023-11-21T05:13:29;6.13;;;4.77;;
13568;SDS011;6856;51.460;7.158;2023-11-21T05:16:06;5.37;;;4.20;;
13568;SDS011;6856;51.460;7.158;2023-11-21T05:18:41;6.03;;;4.30;;
13568;SDS011;6856;51.460;7.158;2023-11-21T05:21:16;7.53;;;4.53;;
13568;SDS011;6856;51.460;7.158;2023-11-21T05:23:52;6.43;;;5.10;;
13568;SDS011;6856;51.460;7.158;2023-11-21T05:26:28;8.30;;;5.17;;
13568;SDS011;6856;51.460;7.158;2023-11-21T05:29:04;5.80;;;4.70;;
13568;SDS011;6856;51.460;7.158;2023-11-21T05:31:38;6.27;;;5.00;;
13568;SDS011;6856;51.460;7.158;2023-11-21T05:34:12;7.20;;;4.83;;
13568;SDS011;6856;51.460;7.158;2023-11-21T05:36:49;6.73;;;5.10;;
13568;SDS011;6856;51.460;7.158;2023-11-21T05:39:23;6.00;;;4.77;;
13568;SDS011;6856;51.460;7.158;2023-11-21T05:41:57;8.37;;;5.33;;
13568;SDS011;6856;51.460;7.158;2023-11-21T05:44:32;5.87;;;4.87;;
13568;SDS011;6856;51.460;7.158;2023-11-21T05:47:07;6.97;;;5.20;;
13568;SDS011;6856;51.460;7.158;2023-11-21T05:49:41;6.47;;;4.83;;
13568;SDS011;6856;51.460;7.158;2023-11-21T05:52:16;7.63;;;5.40;;
13568;SDS011;6856;51.460;7.158;2023-11-21T05:54:50;7.37;;;5.73;;
13568;SDS011;6856;51.460;7.158;2023-11-21T05:57:24;8.77;;;5.80;;
13568;SDS011;6856;51.460;7.158;2023-11-21T05:59:59;6.83;;;4.83;;
13568;SDS011;6856;51.460;7.158;2023-11-21T06:02:41;7.40;;;4.67;;
13568;SDS011;6856;51.460;7.158;2023-11-21T06:05:16;6.67;;;4.60;;
13568;SDS011;6856;51.460;7.158;2023-11-21T06:07:52;7.03;;;5.03;;
13568;SDS011;6856;51.460;7.158;2023-11-21T06:10:28;8.23;;;5.00;;
13568;SDS011;6856;51.460;7.158;2023-11-21T06:13:01;6.23;;;4.47;;
13568;SDS011;6856;51.460;7.158;2023-11-21T06:15:37;6.47;;;5.17;;
13568;SDS011;6856;51.460;7.158;2023-11-21T06:18:11;6.50;;;4.70;;
13568;SDS011;6856;51.460;7.158;2023-11-21T06:20:46;7.23;;;5.20;;
13568;SDS011;6856;51.460;7.158;2023-11-21T06:23:20;7.67;;;5.07;;
13568;SDS011;6856;51.460;7.158;2023-11-21T06:25:54;6.23;;;4.40;;
13568;SDS011;6856;51.460;7.158;2023-11-21T06:28:28;5.27;;;4.13;;
13568;SDS011;6856;51.460;7.158;2023-11-21T06:31:04;5.70;;;4.00;;
13568;SDS011;6856;51.460;7.158;2023-11-21T06:33:38;5.53;;;4.33;;
13568;SDS011;6856;51.460;7.158;2023-11-21T06:36:12;5.83;;;4.57;;
13568;SDS011;6856;51.460;7.158;2023-11-21T06:38:46;8.13;;;4.90;;
13568;SDS011;6856;51.460;7.158;2023-11-21T06:41:20;6.63;;;4.90;;
13568;SDS011;6856;51.460;7.158;2023-11-21T06:43:55;6.43;;;5.10;;
13568;SDS011;6856;51.460;7.158;2023-11-21T06:46:32;5.93;;;4.57;;
13568;SDS011;6856;51.460;7.158;2023-11-21T06:49:06;7.63;;;4.87;;
13568;SDS011;6856;51.460;7.158;2023-11-21T06:51:39;7.10;;;5.03;;
13568;SDS011;6856;51.460;7.158;2023-11-21T06:54:12;6.00;;;4.57;;
13568;SDS011;6856;51.460;7.158;2023-11-21T06:56:46;7.07;;;4.93;;
13568;SDS011;6856;51.460;7.158;2023-11-21T06:59:20;6.90;;;5.53;;
13568;SDS011;6856;51.460;7.158;2023-11-21T07:01:56;7.90;;;5.97;;
13568;SDS011;6856;51.460;7.158;2023-11-21T07:04:30;8.43;;;6.17;;
13568;SDS011;6856;51.460;7.158;2023-11-21T07:07:06;8.53;;;6.40;;
13568;SDS011;6856;51.460;7.158;2023-11-21T07:09:39;9.73;;;7.20;;
13568;SDS011;6856;51.460;7.158;2023-11-21T07:12:15;9.57;;;7.23;;
13568;SDS011;6856;51.460;7.158;2023-11-21T07:14:49;10.30;;;8.07;;
13568;SDS011;6856;51.460;7.158;2023-11-21T07:17:26;9.97;;;7.20;;
13568;SDS011;6856;51.460;7.158;2023-11-21T07:20:00;11.90;;;7.93;;
13568;SDS011;6856;51.460;7.158;2023-11-21T07:22:38;9.77;;;7.63;;
13568;SDS011;6856;51.460;7.158;2023-11-21T07:25:12;12.80;;;8.17;;
13568;SDS011;6856;51.460;7.158;2023-11-21T07:27:47;9.33;;;7.47;;
13568;SDS011;6856;51.460;7.158;2023-11-21T07:30:21;12.23;;;8.17;;
13568;SDS011;6856;51.460;7.158;2023-11-21T07:32:56;12.37;;;8.33;;
13568;SDS011;6856;51.460;7.158;2023-11-21T07:35:31;11.10;;;7.80;;
13568;SDS011;6856;51.460;7.158;2023-11-21T07:38:06;10.20;;;8.10;;
13568;SDS011;6856;51.460;7.158;2023-11-21T07:40:39;11.60;;;8.57;;
13568;SDS011;6856;51.460;7.158;2023-11-21T07:43:14;8.57;;;7.40;;
13568;SDS011;6856;51.460;7.158;2023-11-21T07:45:48;11.57;;;7.63;;
13568;SDS011;6856;51.460;7.158;2023-11-21T07:48:23;13.40;;;9.40;;
13568;SDS011;6856;51.460;7.158;2023-11-21T07:50:57;12.03;;;7.90;;
13568;SDS011;6856;51.460;7.158;2023-11-21T07:53:31;9.57;;;8.10;;
13568;SDS011;6856;51.460;7.158;2023-11-21T07:56:06;10.13;;;8.50;;
13568;SDS011;6856;51.460;7.158;2023-11-21T07:58:42;13.77;;;9.20;;
13568;SDS011;6856;51.460;7.158;2023-11-21T08:01:16;13.77;;;10.00;;
13568;SDS011;6856;51.460;7.158;2023-11-21T08:03:51;12.27;;;9.73;;
13568;SDS011;6856;51.460;7.158;2023-11-21T08:06:28;12.00;;;9.20;;
13568;SDS011;6856;51.460;7.158;2023-11-21T08:09:02;11.13;;;8.60;;
13568;SDS011;6856;51.460;7.158;2023-11-21T08:11:36;12.37;;;10.20;;
13568;SDS011;6856;51.460;7.158;2023-11-21T08:14:10;13.57;;;9.53;;
13568;SDS011;6856;51.460;7.158;2023-11-21T08:16:44;10.83;;;8.43;;
13568;SDS011;6856;51.460;7.158;2023-11-21T08:19:20;12.27;;;9.93;;
13568;SDS011;6856;51.460;7.158;2023-11-21T08:22:00;12.83;;;9.83;;
13568;SDS011;6856;51.460;7.158;2023-11-21T08:24:37;12.10;;;9.67;;
13568;SDS011;6856;51.460;7.158;2023-11-21T08:27:10;14.27;;;10.37;;
13568;SDS011;6856;51.460;7.158;2023-11-21T08:29:47;13.83;;;10.10;;
13568;SDS011;6856;51.460;7.158;2023-11-21T08:32:22;13.60;;;10.60;;
13568;SDS011;6856;51.460;7.158;2023-11-21T08:34:57;15.50;;;11.53;;
13568;SDS011;6856;51.460;7.158;2023-11-21T08:37:31;15.87;;;11.70;;
13568;SDS011;6856;51.460;7.158;2023-11-21T08:40:08;14.90;;;11.50;;
13568;SDS011;6856;51.460;7.158;2023-11-21T08:42:49;14.57;;;10.83;;
13568;SDS011;6856;51.460;7.158;2023-11-21T08:45:24;14.53;;;10.63;;
13568;SDS011;6856;51.460;7.158;2023-11-21T08:47:58;14.47;;;10.77;;
13568;SDS011;6856;51.460;7.158;2023-11-21T08:50:35;20.90;;;11.97;;
13568;SDS011;6856;51.460;7.158;2023-11-21T08:53:09;18.60;;;12.00;;
13568;SDS011;6856;51.460;7.158;2023-11-21T08:55:43;16.63;;;11.90;;
13568;SDS011;6856;51.460;7.158;2023-11-21T08:58:17;18.17;;;13.07;;
13568;SDS011;6856;51.460;7.158;2023-11-21T09:00:51;18.10;;;12.47;;
13568;SDS011;6856;51.460;7.158;2023-11-21T09:03:24;15.17;;;11.73;;
13568;SDS011;6856;51.460;7.158;2023-11-21T09:06:01;19.50;;;13.00;;
13568;SDS011;6856;51.460;7.158;2023-11-21T09:08:36;19.40;;;13.80;;
13568;SDS011;6856;51.460;7.158;2023-11-21T09:11:09;19.33;;;14.03;;
13568;SDS011;6856;51.460;7.158;2023-11-21T09:13:43;24.37;;;15.73;;
13568;SDS011;6856;51.460;7.158;2023-11-21T09:16:20;22.97;;;15.27;;
13568;SDS011;6856;51.460;7.158;2023-11-21T09:18:54;26.90;;;16.50;;
13568;SDS011;6856;51.460;7.158;2023-11-21T09:21:34;22.23;;;15.77;;
13568;SDS011;6856;51.460;7.158;2023-11-21T09:24:08;26.47;;;17.73;;
13568;SDS011;6856;51.460;7.158;2023-11-21T09:26:42;22.57;;;16.10;;
13568;SDS011;6856;51.460;7.158;2023-11-21T09:29:18;23.90;;;16.30;;
13568;SDS011;6856;51.460;7.158;2023-11-21T09:31:51;21.27;;;16.10;;
13568;SDS011;6856;51.460;7.158;2023-11-21T09:34:26;23.73;;;16.10;;
13568;SDS011;6856;51.460;7.158;2023-11-21T09:37:02;24.13;;;16.37;;
13568;SDS011;6856;51.460;7.158;2023-11-21T09:39:37;24.83;;;17.77;;
13568;SDS011;6856;51.460;7.158;2023-11-21T09:42:14;28.83;;;17.93;;
13568;SDS011;6856;51.460;7.158;2023-11-21T09:44:57;22.93;;;16.53;;
13568;SDS011;6856;51.460;7.158;2023-11-21T09:47:38;23.13;;;15.60;;
13568;SDS011;6856;51.460;7.158;2023-11-21T09:50:13;26.97;;;18.07;;
13568;SDS011;6856;51.460;7.158;2023-11-21T09:52:57;26.20;;;17.60;;
13568;SDS011;6856;51.460;7.158;2023-11-21T09:55:47;27.67;;;16.57;;
13568;SDS011;6856;51.460;7.158;2023-11-21T09:58:23;23.30;;;16.70;;
13568;SDS011;6856;51.460;7.158;2023-11-21T10:00:57;26.10;;;17.27;;
13568;SDS011;6856;51.460;7.158;2023-11-21T10:03:35;23.73;;;17.73;;
13568;SDS011;6856;51.460;7.158;2023-11-21T10:06:10;29.50;;;18.47;;
13568;SDS011;6856;51.460;7.158;2023-11-21T10:08:48;28.77;;;18.97;;
13568;SDS011;6856;51.460;7.158;2023-11-21T10:11:26;30.27;;;18.90;;
13568;SDS011;6856;51.460;7.158;2023-11-21T10:14:02;24.80;;;17.33;;
13568;SDS011;6856;51.460;7.158;2023-11-21T10:16:39;23.70;;;16.37;;
13568;SDS011;6856;51.460;7.158;2023-11-21T10:19:15;31.40;;;18.53;;
13568;SDS011;6856;51.460;7.158;2023-11-21T10:21:49;27.43;;;18.07;;
13568;SDS011;6856;51.460;7.158;2023-11-21T10:24:25;24.03;;;16.70;;
13568;SDS011;6856;51.460;7.158;2023-11-21T10:27:11;38.30;;;17.70;;
13568;SDS011;6856;51.460;7.158;2023-11-21T10:29:47;31.73;;;18.90;;
13568;SDS011;6856;51.460;7.158;2023-11-21T10:32:27;28.60;;;18.77;;
13568;SDS011;6856;51.460;7.158;2023-11-21T10:35:04;28.43;;;16.53;;
13568;SDS011;6856;51.460;7.158;2023-11-21T10:37:41;25.10;;;16.83;;
13568;SDS011;6856;51.460;7.158;2023-11-21T10:40:17;27.23;;;16.90;;
13568;SDS011;6856;51.460;7.158;2023-11-21T10:42:51;29.23;;;17.70;;
13568;SDS011;6856;51.460;7.158;2023-11-21T10:45:25;29.73;;;17.77;;
13568;SDS011;6856;51.460;7.158;2023-11-21T10:48:00;28.77;;;17.90;;
13568;SDS011;6856;51.460;7.158;2023-11-21T10:50:37;27.77;;;17.47;;
13568;SDS011;6856;51.460;7.158;2023-11-21T10:53:11;26.33;;;17.37;;
13568;SDS011;6856;51.460;7.158;2023-11-21T10:55:48;28.63;;;18.97;;
13568;SDS011;6856;51.460;7.158;2023-11-21T10:58:22;32.10;;;20.33;;
13568;SDS011;6856;51.460;7.158;2023-11-21T11:00:56;34.07;;;22.70;;
13568;SDS011;6856;51.460;7.158;2023-11-21T11:03:30;35.57;;;22.10;;
13568;SDS011;6856;51.460;7.158;2023-11-21T11:06:05;30.23;;;18.10;;
13568;SDS011;6856;51.460;7.158;2023-11-21T11:08:43;27.40;;;17.73;;
13568;SDS011;6856;51.460;7.158;2023-11-21T11:11:19;29.47;;;17.80;;
13568;SDS011;6856;51.460;7.158;2023-11-21T11:13:53;32.07;;;19.23;;
13568;SDS011;6856;51.460;7.158;2023-11-21T11:16:28;27.83;;;18.33;;
13568;SDS011;6856;51.460;7.158;2023-11-21T11:19:02;31.93;;;19.00;;
13568;SDS011;6856;51.460;7.158;2023-11-21T11:21:38;30.37;;;19.17;;
13568;SDS011;6856;51.460;7.158;2023-11-21T11:24:34;31.83;;;19.43;;
13568;SDS011;6856;51.460;7.158;2023-11-21T11:27:34;29.07;;;18.67;;
13568;SDS011;6856;51.460;7.158;2023-11-21T11:30:27;30.73;;;19.23;;
13568;SDS011;6856;51.460;7.158;2023-11-21T11:33:25;34.90;;;20.67;;
13568;SDS011;6856;51.460;7.158;2023-11-21T11:36:10;39.70;;;21.80;;
13568;SDS011;6856;51.460;7.158;2023-11-21T11:38:53;30.23;;;18.87;;
13568;SDS011;6856;51.460;7.158;2023-11-21T11:41:29;34.20;;;20.13;;
13568;SDS011;6856;51.460;7.158;2023-11-21T11:44:09;35.20;;;21.10;;
13568;SDS011;6856;51.460;7.158;2023-11-21T11:47:25;28.57;;;19.27;;
13568;SDS011;6856;51.460;7.158;2023-11-21T11:50:07;28.47;;;18.13;;
13568;SDS011;6856;51.460;7.158;2023-11-21T11:52:45;31.83;;;19.37;;
13568;SDS011;6856;51.460;7.158;2023-11-21T11:55:22;33.83;;;18.93;;
13568;SDS011;6856;51.460;7.158;2023-11-21T11:58:04;29.87;;;19.33;;
13568;SDS011;6856;51.460;7.158;2023-11-21T12:00:41;32.00;;;18.53;;
13568;SDS011;6856;51.460;7.158;2023-11-21T12:03:17;27.67;;;18.67;;
13568;SDS011;6856;51.460;7.158;2023-11-21T12:05:53;24.43;;;18.67;;
13568;SDS011;6856;51.460;7.158;2023-11-21T12:08:29;23.30;;;17.37;;
13568;SDS011;6856;51.460;7.158;2023-11-21T12:11:04;23.73;;;17.63;;
13568;SDS011;6856;51.460;7.158;2023-11-21T12:13:38;24.20;;;16.67;;
13568;SDS011;6856;51.460;7.158;2023-11-21T12:16:13;23.57;;;16.80;;
13568;SDS011;6856;51.460;7.158;2023-11-21T12:18:47;21.90;;;17.07;;
13568;SDS011;6856;51.460;7.158;2023-11-21T12:21:21;24.20;;;18.50;;
13568;SDS011;6856;51.460;7.158;2023-11-21T12:23:56;21.37;;;17.47;;
13568;SDS011;6856;51.460;7.158;2023-11-21T12:26:30;25.67;;;17.43;;
13568;SDS011;6856;51.460;7.158;2023-11-21T12:29:03;17.80;;;13.93;;
13568;SDS011;6856;51.460;7.158;2023-11-21T12:31:40;18.43;;;13.03;;
13568;SDS011;6856;51.460;7.158;2023-11-21T12:34:14;16.73;;;12.53;;
13568;SDS011;6856;51.460;7.158;2023-11-21T12:36:49;14.53;;;12.00;;
13568;SDS011;6856;51.460;7.158;2023-11-21T12:39:26;16.67;;;12.50;;
13568;SDS011;6856;51.460;7.158;2023-11-21T12:42:02;15.97;;;12.50;;
13568;SDS011;6856;51.460;7.158;2023-11-21T12:44:38;15.47;;;13.13;;
13568;SDS011;6856;51.460;7.158;2023-11-21T12:47:17;16.60;;;12.00;;
13568;SDS011;6856;51.460;7.158;2023-11-21T12:49:52;16.20;;;12.90;;
13568;SDS011;6856;51.460;7.158;2023-11-21T12:52:26;17.33;;;13.47;;
13568;SDS011;6856;51.460;7.158;2023-11-21T12:55:03;15.73;;;12.03;;
13568;SDS011;6856;51.460;7.158;2023-11-21T12:57:40;15.93;;;11.87;;
13568;SDS011;6856;51.460;7.158;2023-11-21T13:00:15;15.73;;;11.87;;
13568;SDS011;6856;51.460;7.158;2023-11-21T13:03:00;14.13;;;11.60;;
13568;SDS011;6856;51.460;7.158;2023-11-21T13:05:34;17.13;;;11.17;;
13568;SDS011;6856;51.460;7.158;2023-11-21T13:08:11;14.17;;;11.00;;
13568;SDS011;6856;51.460;7.158;2023-11-21T13:10:50;16.90;;;11.67;;
13568;SDS011;6856;51.460;7.158;2023-11-21T13:13:28;13.03;;;10.13;;
13568;SDS011;6856;51.460;7.158;2023-11-21T13:16:03;10.73;;;8.53;;
13568;SDS011;6856;51.460;7.158;2023-11-21T13:18:41;9.17;;;7.77;;
13568;SDS011;6856;51.460;7.158;2023-11-21T13:21:15;7.97;;;6.77;;
13568;SDS011;6856;51.460;7.158;2023-11-21T13:23:49;7.97;;;7.00;;
13568;SDS011;6856;51.460;7.158;2023-11-21T13:26:24;8.27;;;6.03;;
13568;SDS011;6856;51.460;7.158;2023-11-21T13:28:58;7.67;;;5.87;;
13568;SDS011;6856;51.460;7.158;2023-11-21T13:31:34;8.03;;;6.17;;
13568;SDS011;6856;51.460;7.158;2023-11-21T13:34:10;7.47;;;5.37;;
13568;SDS011;6856;51.460;7.158;2023-11-21T13:36:51;6.73;;;5.67;;
13568;SDS011;6856;51.460;7.158;2023-11-21T13:39:31;6.97;;;5.40;;
13568;SDS011;6856;51.460;7.158;2023-11-21T13:42:05;7.67;;;6.57;;
13568;SDS011;6856;51.460;7.158;2023-11-21T13:44:38;8.47;;;6.87;;
13568;SDS011;6856;51.460;7.158;2023-11-21T13:47:15;9.63;;;7.50;;
13568;SDS011;6856;51.460;7.158;2023-11-21T13:49:50;9.53;;;7.03;;
13568;SDS011;6856;51.460;7.158;2023-11-21T13:52:24;8.57;;;7.30;;
13568;SDS011;6856;51.460;7.158;2023-11-21T13:54:59;8.87;;;6.90;;
13568;SDS011;6856;51.460;7.158;2023-11-21T13:57:38;8.97;;;7.00;;
13568;SDS011;6856;51.460;7.158;2023-11-21T14:00:12;9.07;;;7.50;;
13568;SDS011;6856;51.460;7.158;2023-11-21T14:03:08;7.70;;;6.67;;
13568;SDS011;6856;51.460;7.158;2023-11-21T14:05:50;7.43;;;5.97;;
13568;SDS011;6856;51.460;7.158;2023-11-21T14:08:24;8.70;;;6.97;;
13568;SDS011;6856;51.460;7.158;2023-11-21T14:11:00;9.37;;;7.20;;
13568;SDS011;6856;51.460;7.158;2023-11-21T14:13:33;9.40;;;6.67;;
13568;SDS011;6856;51.460;7.158;2023-11-21T14:16:10;7.37;;;6.07;;
13568;SDS011;6856;51.460;7.158;2023-11-21T14:18:45;9.57;;;6.47;;
13568;SDS011;6856;51.460;7.158;2023-11-21T14:21:28;9.20;;;6.13;;
13568;SDS011;6856;51.460;7.158;2023-11-21T14:24:04;6.90;;;5.57;;
13568;SDS011;6856;51.460;7.158;2023-11-21T14:26:41;8.57;;;6.20;;
13568;SDS011;6856;51.460;7.158;2023-11-21T14:29:18;7.77;;;6.20;;
13568;SDS011;6856;51.460;7.158;2023-11-21T14:31:53;7.10;;;5.73;;
13568;SDS011;6856;51.460;7.158;2023-11-21T14:34:30;8.47;;;6.13;;
13568;SDS011;6856;51.460;7.158;2023-11-21T14:37:05;8.43;;;5.93;;
13568;SDS011;6856;51.460;7.158;2023-11-21T14:39:38;6.90;;;5.83;;
13568;SDS011;6856;51.460;7.158;2023-11-21T14:42:16;7.63;;;5.47;;
13568;SDS011;6856;51.460;7.158;2023-11-21T14:44:56;5.97;;;4.33;;
13568;SDS011;6856;51.460;7.158;2023-11-21T14:47:34;7.57;;;5.13;;
13568;SDS011;6856;51.460;7.158;2023-11-21T14:50:09;8.07;;;5.50;;
13568;SDS011;6856;51.460;7.158;2023-11-21T14:53:12;7.37;;;5.10;;
13568;SDS011;6856;51.460;7.158;2023-11-21T14:55:45;6.80;;;5.00;;
13568;SDS011;6856;51.460;7.158;2023-11-21T14:58:29;6.20;;;4.60;;
13568;SDS011;6856;51.460;7.158;2023-11-21T15:01:03;6.37;;;4.77;;
13568;SDS011;6856;51.460;7.158;2023-11-21T15:03:36;6.60;;;5.00;;
13568;SDS011;6856;51.460;7.158;2023-11-21T15:06:20;6.63;;;5.27;;
13568;SDS011;6856;51.460;7.158;2023-11-21T15:09:00;6.63;;;4.70;;
13568;SDS011;6856;51.460;7.158;2023-11-21T15:11:51;6.20;;;3.97;;
13568;SDS011;6856;51.460;7.158;2023-11-21T15:14:30;4.80;;;3.90;;
13568;SDS011;6856;51.460;7.158;2023-11-21T15:17:05;5.37;;;4.23;;
13568;SDS011;6856;51.460;7.158;2023-11-21T15:19:39;4.73;;;4.10;;
13568;SDS011;6856;51.460;7.158;2023-11-21T15:22:17;4.30;;;3.50;;
13568;SDS011;6856;51.460;7.158;2023-11-21T15:24:52;4.93;;;3.63;;
13568;SDS011;6856;51.460;7.158;2023-11-21T15:27:27;4.30;;;3.43;;
13568;SDS011;6856;51.460;7.158;2023-11-21T15:30:01;5.13;;;3.63;;
13568;SDS011;6856;51.460;7.158;2023-11-21T15:32:35;4.13;;;3.20;;
13568;SDS011;6856;51.460;7.158;2023-11-21T15:35:11;4.30;;;3.17;;
13568;SDS011;6856;51.460;7.158;2023-11-21T15:37:46;4.47;;;3.67;;
13568;SDS011;6856;51.460;7.158;2023-11-21T15:40:21;5.30;;;3.90;;
13568;SDS011;6856;51.460;7.158;2023-11-21T15:42:55;5.00;;;4.10;;
13568;SDS011;6856;51.460;7.158;2023-11-21T15:45:29;4.87;;;3.97;;